• Join FlightAware (Why Join?)
  • Login
  • US Flag 
04:56PM EDT


 

Airport Tracker/Info


-or-


 

Live Flight TrackerFlight Track Log ✈ UAL5887 ✈ 19-Apr-2013 ✈ KORD - CYUL

Flight Track Log - Related Links

Times and Time Zones

All times are in EDT time to prevent confusion due to time zone crossing. See the UAL5887 flight status page for this flight to view local times or setup timezone preferences in your user account.

Time Position Orientation Groundspeed Altitude Reporting Facility
EDT Latitude Longitude Course Direction KTS MPH feet Rate Location/Type
12:17PM 42.0500 -87.9333 90° East 248 285 3,700  Level Chicago TRACON
12:18PM 42.1000 -87.8667 45° Northeast 269 310 5,800 1,860 Climbing Chicago TRACON
12:19PM 42.1347 -87.8161 47° Northeast 269 310 7,300 1,920 Climbing Chicago Center
12:20PM 42.1689 -87.6892 70° East 303 349 9,600 1,980 Climbing Chicago Center
12:21PM 42.1908 -87.5672 76° East 328 377 11,400 1,740 Climbing Chicago Center
12:22PM 42.2131 -87.4392 77° East 348 400 13,200 1,560 Climbing Chicago Center
12:23PM 42.2667 -87.0427 90° East  Level FlightAware Approximate
12:23PM 42.2203 -87.3042 86° East 361 415 14,700  Level Chicago Center
12:24PM 42.2242 -87.1614 88° East 378 435 15,900 1,080 Climbing Chicago Center
12:25PM 42.2297 -87.0119 87° East 397 457 17,000 1,320 Climbing Chicago Center
12:26PM 42.2347 -86.8261 88° East 412 474 18,700 1,200 Climbing Chicago Center
12:27PM 42.2389 -86.6994 87° East 420 483 19,600 1,020 Climbing Chicago Center
12:28PM 42.2447 -86.5258 87° East 428 493 20,900 1,320 Climbing Chicago Center
12:29PM 42.2500 -86.3333 88° East 429 494 22,400 1,260 Climbing Chicago Center
12:30PM 42.2547 -86.1689 88° East 436 502 23,600 1,140 Climbing Chicago Center
12:31PM 42.2589 -86.0056 88° East 436 502 24,800 1,080 Climbing Chicago Center
12:33PM 42.2611 -85.8575 89° East 434 499 25,900 1,200 Climbing Chicago Center
12:34PM 42.2656 -85.6625 88° East 436 502 27,300 1,200 Climbing Chicago Center
12:35PM 42.2694 -85.5006 88° East 433 498 28,500 1,140 Climbing Chicago Center
12:36PM 42.2733 -85.3375 88° East 437 503 29,700 1,200 Climbing Chicago Center
12:36PM 42.2775 -85.2564 86° East 421 484 30,300 1,200 Climbing Cleveland Center
12:37PM 42.2797 -85.0964 89° East 421 484 31,500 1,200 Climbing Cleveland Center
12:38PM 42.2819 -84.9339 89° East 421 484 32,700 1,020 Climbing Cleveland Center
12:39PM 42.2836 -84.7739 89° East 426 490 33,600 600 Climbing Cleveland Center
12:40PM 42.3022 -84.6067 81° East 426 490 34,000 180 Climbing Cleveland Center
12:41PM 42.3561 -84.4303 67° East 460 529 34,000  Level Cleveland Center
12:42PM 42.4122 -84.2478 67° East 495 570 34,000 60 Level Cleveland Center
12:43PM 42.4656 -84.0708 68° East 507 583 34,200 480 Climbing Cleveland Center
12:44PM 42.5169 -83.8906 69° East 512 589 35,000 360 Climbing Cleveland Center
12:45PM 42.5700 -83.7100 68° East 506 582 35,000  Level Cleveland Center
12:46PM 42.6225 -83.5292 68° East 506 582 35,000  Level Cleveland Center
12:47PM 42.6750 -83.3453 69° East 506 582 35,000  Level Cleveland Center
12:48PM 42.7250 -83.1664 69° East 506 582 35,000  Level Cleveland Center
12:49PM 42.7769 -82.9847 69° East 501 577 35,000  Level Cleveland Center
12:50PM 42.8264 -82.8083 69° East 501 577 35,000  Level Cleveland Center
12:51PM 42.8756 -82.6286 69° East 501 577 35,000  Level Cleveland Center
12:51PM 42.8833 -82.5500 82° East 510 587 35,000  Level Toronto Center
12:52PM 42.9333 -82.3667 70° East 510 587 35,000  Level Toronto Center
12:53PM 42.9833 -82.1833 69° East 510 587 35,000  Level Toronto Center
12:54PM 43.0167 -82.0000 76° East 500 575 35,000  Level Toronto Center
12:55PM 43.1000 -81.8167 58° Northeast 510 587 35,000  Level Toronto Center
12:56PM 43.1500 -81.6500 68° East 520 598 35,000  Level Toronto Center
12:57PM 43.2000 -81.4667 69° East 520 598 35,000  Level Toronto Center
12:58PM 43.2500 -81.2833 69° East 510 587 35,000  Level Toronto Center
12:59PM 43.3000 -81.1000 69° East 510 587 35,000  Level Toronto Center
01:00PM 43.3500 -80.9167 69° East 510 587 35,000  Level Toronto Center
01:01PM 43.4167 -80.7333 63° Northeast 510 587 35,000  Level Toronto Center
01:02PM 43.4667 -80.5500 69° East 510 587 35,000  Level Toronto Center
01:03PM 43.5167 -80.3667 69° East 520 598 35,000  Level Toronto Center
01:04PM 43.5667 -80.1833 69° East 520 598 35,000  Level Toronto Center
01:05PM 43.6167 -80.0000 69° East 520 598 35,000  Level Toronto Center
01:06PM 43.6833 -79.8167 63° Northeast 510 587 35,000  Level Toronto Center
01:07PM 43.7333 -79.6333 69° East 510 587 35,000  Level Toronto Center
01:08PM 43.7833 -79.4500 69° East 510 587 35,000  Level Toronto Center
01:09PM 43.8333 -79.2667 69° East 510 587 35,000  Level Toronto Center
01:10PM 43.8833 -79.0833 69° East 510 587 35,000  Level Toronto Center
01:11PM 43.9333 -78.9000 69° East 510 587 35,000  Level Toronto Center
01:12PM 43.9833 -78.7000 71° East 510 587 35,000  Level Toronto Center
01:13PM 44.0333 -78.5500 65° Northeast 510 587 35,000  Level Toronto Center
01:14PM 44.0667 -78.3333 78° East 510 587 35,000  Level Toronto Center
01:15PM 44.1167 -78.1667 67° East 520 598 35,000  Level Toronto Center
01:16PM 44.1833 -77.9667 65° Northeast 520 598 35,000  Level Toronto Center
01:17PM 44.2167 -77.7667 77° East 520 598 35,000  Level Toronto Center
01:18PM 44.2833 -77.5833 63° Northeast 520 598 35,000  Level Toronto Center
01:19PM 44.3333 -77.4000 69° East 520 598 35,000  Level Toronto Center
01:20PM 44.3667 -77.2333 74° East 510 587 35,000  Level Toronto Center
01:21PM 44.4000 -77.1000 71° East 510 587 35,000  Level Montreal Center
01:22PM 44.4500 -76.9000 71° East 510 587 35,000  Level Montreal Center
01:23PM 44.5000 -76.7167 69° East 510 587 35,000  Level Montreal Center
01:24PM 44.5500 -76.5333 69° East 510 587 35,000  Level Montreal Center
01:25PM 44.5833 -76.3500 76° East 510 587 35,000  Level Montreal Center
01:26PM 44.6333 -76.1500 71° East 510 587 35,000  Level Montreal Center
01:27PM 44.6833 -75.9667 69° East 500 575 35,000  Level Montreal Center
01:28PM 44.7333 -75.8000 67° East 480 552 35,000 -780 Level Montreal Center
01:29PM 44.7833 -75.6167 69° East 470 541 33,500 -1,800 Descending Montreal Center
01:30PM 44.8333 -75.4500 67° East 480 552 31,400 -2,400 Descending Montreal Center
01:31PM 44.8833 -75.2667 69° East 490 564 28,800 -2,520 Descending Montreal Center
01:32PM 44.9167 -75.1000 74° East 490 564 26,400 -2,700 Descending Montreal Center
01:33PM 44.9833 -74.9000 65° Northeast 480 552 23,500 -2,700 Descending Montreal Center
01:34PM 45.0500 -74.7667 55° Northeast 470 541 21,000 -2,580 Descending Montreal Center
01:35PM 45.1167 -74.6000 60° Northeast 470 541 18,400 -2,700 Descending Montreal Center
01:36PM 45.1833 -74.4500 58° Northeast 460 529 15,600 -2,460 Descending Montreal Center
01:37PM 45.2500 -74.3000 58° Northeast 440 506 13,500 -2,040 Descending Montreal Center
01:38PM 45.3167 -74.1500 58° Northeast 400 460 11,600 -1,740 Descending Montreal Center
01:39PM 45.3500 -74.0333 68° East 370 426 10,100 -1,380 Descending Montreal Center
01:40PM 45.4333 -73.9333 40° Northeast 340 391 8,900 -1,260 Descending Montreal Center
01:41PM 45.5000 -73.8667 35° Northeast 310 357 7,600 -1,620 Descending Montreal Center
01:42PM 45.5667 -73.7667 46° Northeast 310 357 5,700 -1,680 Descending Montreal Center
01:43PM 45.6167 -73.7000 43° Northeast 300 345 4,300 -1,320 Descending Montreal Center
01:44PM 45.6500 -73.6000 64° Northeast 240 276 3,100 -660 Descending Montreal Center
01:45PM 45.6000 -73.5500 145° Southeast 180 207 3,000 -300 Descending Montreal Center
01:46PM 45.5667 -73.5667 199° South 170 196 2,500 -660 Descending Montreal Center
01:47PM 45.5167 -73.6167 215° Southwest 170 196 1,700 -840 Descending Montreal Center
01:48PM 45.5000 -73.6667 245° Southwest 140 161 900 -780 Descending Montreal Center
01:49PM 45.4667 -73.7000 215° Southwest 140 161 200 -720 Descending Montreal Center